createdAt,value
2023-03-16T00:00:05.092Z,45.04
2023-03-16T00:02:31.545Z,44.72
2023-03-16T00:04:58.004Z,44.26
2023-03-16T00:07:24.474Z,44.84
2023-03-16T00:09:50.947Z,44.62
2023-03-16T00:12:17.431Z,44.34
2023-03-16T00:14:43.923Z,44.36
2023-03-16T00:17:10.387Z,44.79
2023-03-16T00:19:36.849Z,44.61
2023-03-16T00:22:03.292Z,44.57
2023-03-16T00:24:29.732Z,44.97
2023-03-16T00:26:56.207Z,44.82
2023-03-16T00:29:22.678Z,44.50
2023-03-16T00:31:49.205Z,44.51
2023-03-16T00:34:15.732Z,44.89
2023-03-16T00:36:42.225Z,44.47
2023-03-16T00:39:08.683Z,44.40
2023-03-16T00:41:35.120Z,44.75
2023-03-16T00:44:01.597Z,44.91
2023-03-16T00:46:28.060Z,44.76
2023-03-16T00:48:54.525Z,44.69
2023-03-16T00:51:21.006Z,44.56
2023-03-16T00:53:47.474Z,44.59
2023-03-16T00:56:13.943Z,44.45
2023-03-16T00:58:40.430Z,44.23
2023-03-16T01:01:06.941Z,44.55
2023-03-16T05:06:37.999Z,44.57
2023-03-16T05:09:04.453Z,44.64
2023-03-16T05:11:30.891Z,45.00
2023-03-16T05:13:57.350Z,44.90
2023-03-16T05:16:23.863Z,44.64
2023-03-16T05:18:50.347Z,44.50
2023-03-16T05:21:16.821Z,44.72
2023-03-16T05:23:43.291Z,44.80
2023-03-16T05:26:09.728Z,44.95
2023-03-16T05:28:36.155Z,44.71
2023-03-16T05:31:02.725Z,44.94
2023-03-16T05:33:29.244Z,45.06
2023-03-16T05:35:55.716Z,44.79
2023-03-16T05:38:22.180Z,45.27
2023-03-16T05:40:48.670Z,45.09
2023-03-16T05:43:15.120Z,44.70
2023-03-16T05:45:41.555Z,44.96
2023-03-16T05:48:07.995Z,44.80
2023-03-16T05:50:34.466Z,45.19
2023-03-16T05:53:00.925Z,44.70
2023-03-16T05:55:27.413Z,44.46
2023-03-16T05:57:53.863Z,44.77
2023-03-16T06:00:20.316Z,45.02
2023-03-16T06:02:46.828Z,45.05
2023-03-16T06:05:13.326Z,44.92
2023-03-16T06:07:39.849Z,45.04
2023-03-16T06:10:06.309Z,45.25
2023-03-16T06:12:32.767Z,45.40
2023-03-16T06:14:59.219Z,45.15
2023-03-16T06:17:25.663Z,45.15
2023-03-16T06:19:52.142Z,45.42
2023-03-16T06:22:18.671Z,45.84
2023-03-16T06:24:45.119Z,45.36
2023-03-16T06:27:11.566Z,45.21
2023-03-16T06:29:38.026Z,45.78
2023-03-16T06:32:04.465Z,45.57
2023-03-16T06:34:30.916Z,44.95
2023-03-16T06:36:57.372Z,45.10
2023-03-16T06:39:23.807Z,45.00
2023-03-16T06:41:50.263Z,44.96
2023-03-16T06:44:16.754Z,45.09
2023-03-16T06:46:43.239Z,45.30
2023-03-16T06:49:09.710Z,45.20
2023-03-16T06:51:36.147Z,45.30
2023-03-16T06:54:02.568Z,44.75
2023-03-16T06:56:29.007Z,44.92
2023-03-16T06:58:55.471Z,45.07
2023-03-16T07:01:21.954Z,45.24
2023-03-16T07:03:48.470Z,44.75
2023-03-16T07:06:14.932Z,45.02
2023-03-16T07:08:41.379Z,44.28
2023-03-16T07:11:07.853Z,44.43
2023-03-16T07:13:34.303Z,44.52
2023-03-16T07:16:00.730Z,44.79
2023-03-16T07:18:27.183Z,44.71
2023-03-16T07:20:53.631Z,44.59
2023-03-16T07:23:20.093Z,44.46
2023-03-16T07:25:46.573Z,44.26
2023-03-16T07:28:13.037Z,44.36
2023-03-16T07:30:39.516Z,44.33
2023-03-16T07:33:06.042Z,44.31
2023-03-16T07:35:32.533Z,44.31
2023-03-16T07:37:58.962Z,44.50
2023-03-16T07:40:25.404Z,44.41
2023-03-16T07:42:51.855Z,44.00
2023-03-16T07:45:18.287Z,44.29
2023-03-16T07:47:44.715Z,44.66
2023-03-16T07:50:11.162Z,44.28
2023-03-16T07:52:37.682Z,44.25
2023-03-16T07:55:04.140Z,44.52
2023-03-16T07:57:30.608Z,43.92
2023-03-16T07:59:57.064Z,44.50
2023-03-16T08:02:23.567Z,44.40
2023-03-16T08:04:50.074Z,43.82
2023-03-16T08:07:16.515Z,44.12
2023-03-16T08:09:42.969Z,44.01
2023-03-16T08:12:09.409Z,44.60
2023-03-16T08:14:35.839Z,44.65
2023-03-16T08:17:02.345Z,44.83
2023-03-16T08:19:28.815Z,44.88
2023-03-16T08:22:01.370Z,44.93
2023-03-16T08:24:28.250Z,44.83
2023-03-16T08:26:54.701Z,44.82
2023-03-16T08:29:21.144Z,44.95
2023-03-16T08:31:47.576Z,45.02
2023-03-16T08:34:14.015Z,44.92
2023-03-16T08:36:40.501Z,44.70
2023-03-16T08:39:07.862Z,44.72
2023-03-16T08:41:34.340Z,44.85
2023-03-16T08:44:00.794Z,44.66
2023-03-16T08:46:27.230Z,44.64
2023-03-16T08:48:53.687Z,44.71
2023-03-16T08:51:20.142Z,44.66
2023-03-16T08:53:46.587Z,44.64
2023-03-16T08:56:13.038Z,44.60
2023-03-16T08:58:39.498Z,44.66
2023-03-16T09:01:05.942Z,44.81
2023-03-16T09:03:32.363Z,44.70
2023-03-16T09:05:58.842Z,44.55
2023-03-16T09:08:25.281Z,44.65
2023-03-16T09:10:51.730Z,44.40
2023-03-16T09:13:18.193Z,44.44
2023-03-16T09:15:44.658Z,44.37
2023-03-16T09:18:11.103Z,44.31
2023-03-16T09:20:37.861Z,44.22
2023-03-16T09:23:04.428Z,44.18
2023-03-16T09:25:31.269Z,44.04
2023-03-16T09:27:57.965Z,43.94
2023-03-16T09:30:24.569Z,44.02
2023-03-16T09:32:51.186Z,44.35
2023-03-16T09:35:17.730Z,44.33
2023-03-16T09:38:01.195Z,45.07
2023-03-16T09:40:30.618Z,45.74
2023-03-16T09:42:57.101Z,46.03
2023-03-16T09:45:23.535Z,46.12
2023-03-16T09:47:49.978Z,46.20
2023-03-16T09:50:16.507Z,46.25
2023-03-16T09:52:42.976Z,46.39
2023-03-16T09:55:09.436Z,46.36
2023-03-16T09:57:35.931Z,46.67
2023-03-16T10:00:02.411Z,46.87
2023-03-16T10:02:28.865Z,46.86
2023-03-16T10:04:55.314Z,46.82
2023-03-16T10:07:21.798Z,46.98
2023-03-16T10:09:48.228Z,46.99
2023-03-16T10:12:14.687Z,46.87
2023-03-16T10:14:41.131Z,46.91
2023-03-16T10:17:07.588Z,46.98
2023-03-16T10:19:34.052Z,46.89
2023-03-16T10:22:00.493Z,46.92
2023-03-16T10:24:26.953Z,46.98
2023-03-16T10:26:53.390Z,46.68
2023-03-16T10:29:19.848Z,46.53
2023-03-16T10:31:46.370Z,46.44
2023-03-16T10:34:12.883Z,46.68
2023-03-16T10:36:39.400Z,46.90
2023-03-16T10:39:05.881Z,46.86
2023-03-16T10:41:32.392Z,46.84
2023-03-16T10:43:58.841Z,47.11
2023-03-16T10:46:25.366Z,46.96
2023-03-16T10:48:51.865Z,47.04
2023-03-16T10:51:18.345Z,46.88
2023-03-16T10:53:44.850Z,46.82
2023-03-16T10:56:11.294Z,46.81
2023-03-16T10:58:37.770Z,46.98
2023-03-16T11:01:04.265Z,46.93
2023-03-16T11:03:30.739Z,47.50
2023-03-16T11:05:57.204Z,47.79
2023-03-16T11:08:23.698Z,49.49
2023-03-16T11:10:55.924Z,49.74
2023-03-16T11:13:22.586Z,49.25
2023-03-16T11:15:49.092Z,48.38
2023-03-16T11:18:15.548Z,47.53
2023-03-16T11:20:42.046Z,47.32
2023-03-16T11:23:08.488Z,47.36
2023-03-16T11:25:34.952Z,47.26
2023-03-16T11:28:01.466Z,46.92
2023-03-16T11:30:27.929Z,47.05
2023-03-16T11:32:54.573Z,47.18
2023-03-16T11:35:21.091Z,47.01
2023-03-16T11:37:47.559Z,47.52
2023-03-16T11:40:14.017Z,47.43
2023-03-16T11:42:40.483Z,47.34
2023-03-16T11:45:06.930Z,47.10
2023-03-16T11:47:33.399Z,46.99
2023-03-16T11:49:59.891Z,47.42
2023-03-16T11:52:26.340Z,47.68
2023-03-16T11:54:52.793Z,47.45
2023-03-16T11:57:19.236Z,47.25
2023-03-16T11:59:52.033Z,47.27
2023-03-16T12:02:25.666Z,47.04
2023-03-16T12:04:52.227Z,47.01
2023-03-16T12:07:18.736Z,46.88
2023-03-16T12:09:45.188Z,46.87
2023-03-16T12:12:11.647Z,46.83
2023-03-16T12:14:38.105Z,46.74
2023-03-16T12:17:04.622Z,46.75
2023-03-16T12:19:31.136Z,46.53
2023-03-16T12:21:57.602Z,46.71
2023-03-16T12:24:24.072Z,46.40
2023-03-16T12:26:50.551Z,46.44
2023-03-16T12:29:17.055Z,46.47
2023-03-16T12:31:43.536Z,46.48
2023-03-16T12:34:10.027Z,46.35
2023-03-16T12:36:36.473Z,46.57
2023-03-16T12:39:02.919Z,46.54
2023-03-16T12:41:29.360Z,46.37
2023-03-16T12:43:55.882Z,46.38
2023-03-16T12:46:22.432Z,46.37
2023-03-16T12:48:48.996Z,46.24
2023-03-16T12:51:15.471Z,46.33
2023-03-16T12:53:41.908Z,46.06
2023-03-16T12:56:08.374Z,46.13
2023-03-16T12:58:34.837Z,46.04
2023-03-16T13:01:01.323Z,46.06
2023-03-16T13:03:27.788Z,46.21
2023-03-16T13:05:54.296Z,46.14
2023-03-16T13:08:20.742Z,46.32
2023-03-16T13:10:47.301Z,45.86
2023-03-16T13:13:13.764Z,46.16
2023-03-16T13:15:40.232Z,46.31
2023-03-16T13:18:06.689Z,46.13
2023-03-16T13:20:33.493Z,46.28
2023-03-16T13:23:00.293Z,46.27
2023-03-16T13:25:26.732Z,46.20
2023-03-16T13:27:53.227Z,46.21
2023-03-16T13:30:19.748Z,46.24
2023-03-16T13:32:46.272Z,46.01
2023-03-16T13:35:12.756Z,45.99
2023-03-16T13:37:39.210Z,46.14
2023-03-16T13:40:05.686Z,46.00
2023-03-16T13:42:32.151Z,45.90
2023-03-16T13:44:58.612Z,45.96
2023-03-16T13:47:25.093Z,45.94
2023-03-16T13:49:51.558Z,45.73
2023-03-16T13:52:18.047Z,45.88
2023-03-16T13:54:44.532Z,45.88
2023-03-16T13:57:10.986Z,45.90
2023-03-16T13:59:37.447Z,45.95
2023-03-16T14:02:03.926Z,45.97
2023-03-16T14:04:30.376Z,45.77
2023-03-16T14:06:56.833Z,45.81
2023-03-16T14:09:23.273Z,45.93
2023-03-16T14:11:49.761Z,45.80
2023-03-16T14:14:16.397Z,46.03
2023-03-16T14:16:42.945Z,45.96
2023-03-16T14:19:09.388Z,46.05
2023-03-16T14:21:35.850Z,46.03
2023-03-16T14:24:02.294Z,45.97
2023-03-16T14:26:28.756Z,46.04
2023-03-16T14:28:55.207Z,46.00
2023-03-16T14:31:21.704Z,45.98
2023-03-16T14:33:48.229Z,46.09
2023-03-16T14:36:14.754Z,46.06
2023-03-16T14:38:41.278Z,46.08
2023-03-16T14:41:07.727Z,46.05
2023-03-16T14:43:34.172Z,45.80
2023-03-16T14:46:00.759Z,46.06
2023-03-16T14:48:27.281Z,46.23
2023-03-16T14:50:53.731Z,46.04
2023-03-16T14:53:20.191Z,46.08
2023-03-16T14:55:46.650Z,46.15
2023-03-16T14:58:13.090Z,46.20
2023-03-16T15:00:52.043Z,45.52
2023-03-16T15:03:19.522Z,45.44
2023-03-16T15:05:45.992Z,45.49
2023-03-16T15:08:12.446Z,45.70
2023-03-16T15:10:38.932Z,45.41
2023-03-16T15:13:05.395Z,45.53
2023-03-16T15:15:31.869Z,45.58
2023-03-16T15:17:58.330Z,45.69
2023-03-16T15:20:24.786Z,45.67
2023-03-16T15:22:51.272Z,45.49
2023-03-16T15:25:17.739Z,45.71
2023-03-16T15:27:44.183Z,45.64
2023-03-16T15:30:10.647Z,45.82
2023-03-16T15:32:37.139Z,45.85
2023-03-16T15:35:03.631Z,45.90
2023-03-16T15:37:30.101Z,45.75
2023-03-16T15:39:56.553Z,45.58
2023-03-16T15:42:23.038Z,45.71
2023-03-16T15:44:49.509Z,45.96
2023-03-16T15:47:15.980Z,45.94
2023-03-16T15:49:47.823Z,45.95
2023-03-16T15:52:14.636Z,45.78
2023-03-16T15:54:41.080Z,45.82
2023-03-16T15:57:07.551Z,45.96
2023-03-16T15:59:34.019Z,45.83
2023-03-16T16:02:00.518Z,45.85
2023-03-16T16:04:26.993Z,45.80
2023-03-16T16:06:53.515Z,45.81
2023-03-16T16:09:19.959Z,45.77
2023-03-16T16:11:46.428Z,45.75
2023-03-16T16:14:12.869Z,45.82
2023-03-16T16:16:39.355Z,45.65
2023-03-16T16:19:05.842Z,45.70
2023-03-16T16:21:32.322Z,45.60
2023-03-16T16:23:58.779Z,45.66
2023-03-16T16:26:27.850Z,45.66
2023-03-16T16:28:58.148Z,45.69
2023-03-16T16:31:24.666Z,45.70
2023-03-16T16:33:51.138Z,45.71
2023-03-16T16:36:17.641Z,45.70
2023-03-16T16:38:44.118Z,45.40
2023-03-16T16:41:10.610Z,45.54
2023-03-16T16:43:37.083Z,45.51
2023-03-16T16:46:03.578Z,45.76
2023-03-16T16:48:30.132Z,46.07
2023-03-16T16:50:56.606Z,45.88
2023-03-16T16:53:23.089Z,45.62
2023-03-16T16:55:49.553Z,45.67
2023-03-16T16:58:24.199Z,45.71
2023-03-16T17:00:51.311Z,46.05
2023-03-16T17:03:17.793Z,46.05
2023-03-16T17:05:44.263Z,45.96
2023-03-16T17:08:10.709Z,46.12
2023-03-16T17:10:37.156Z,46.15
2023-03-16T17:13:03.627Z,45.70
2023-03-16T17:15:30.425Z,45.87
2023-03-16T17:17:57.061Z,45.40
2023-03-16T17:20:23.526Z,45.66
2023-03-16T17:22:50.002Z,45.40
2023-03-16T17:25:16.481Z,45.39
2023-03-16T17:27:42.963Z,45.09
2023-03-16T17:30:09.412Z,46.35
2023-03-16T17:32:35.906Z,47.06
2023-03-16T17:35:02.387Z,46.30
2023-03-16T17:37:28.887Z,46.67
2023-03-16T17:39:57.385Z,47.20
2023-03-16T17:42:24.101Z,46.75
2023-03-16T17:44:50.545Z,46.99
2023-03-16T17:47:17.044Z,47.06
2023-03-16T17:49:43.534Z,46.84
2023-03-16T17:52:09.974Z,47.63
2023-03-16T17:54:36.447Z,47.55
2023-03-16T17:57:02.919Z,47.81
2023-03-16T17:59:29.369Z,47.89
2023-03-16T18:01:55.909Z,47.85
2023-03-16T18:04:22.469Z,48.05
2023-03-16T18:06:48.944Z,47.89
2023-03-16T18:09:15.417Z,47.88
2023-03-16T18:11:41.878Z,47.96
2023-03-16T18:14:08.362Z,47.94
2023-03-16T18:16:34.855Z,47.84
2023-03-16T18:19:01.325Z,47.83
2023-03-16T18:21:27.791Z,47.81
2023-03-16T18:23:54.259Z,47.79
2023-03-16T18:26:20.740Z,47.87
2023-03-16T18:28:47.193Z,47.66
2023-03-16T18:31:13.672Z,47.55
2023-03-16T18:33:40.159Z,47.67
2023-03-16T18:36:06.655Z,47.55
2023-03-16T18:38:33.186Z,47.65
2023-03-16T18:40:59.668Z,47.47
2023-03-16T18:43:27.321Z,47.79
2023-03-16T18:45:54.920Z,47.72
2023-03-16T18:48:21.488Z,47.75
2023-03-16T18:50:47.950Z,47.47
2023-03-16T18:53:14.409Z,47.70
2023-03-16T18:55:40.874Z,47.69
2023-03-16T18:58:07.335Z,47.49
2023-03-16T19:00:33.884Z,47.49
2023-03-16T19:03:00.380Z,47.60
2023-03-16T19:05:27.076Z,47.38
2023-03-16T19:07:53.844Z,47.37
2023-03-16T19:10:20.312Z,47.40
2023-03-16T19:12:46.754Z,47.33
2023-03-16T19:15:13.234Z,47.31
2023-03-16T19:17:39.733Z,47.18
2023-03-16T19:20:06.249Z,47.37
2023-03-16T19:22:32.730Z,47.08
2023-03-16T19:24:59.184Z,47.07
2023-03-16T19:27:25.719Z,47.22
2023-03-16T19:29:52.467Z,46.77
2023-03-16T19:32:18.951Z,46.72
2023-03-16T19:34:45.396Z,46.70
2023-03-16T19:37:11.847Z,46.67
2023-03-16T19:39:38.311Z,46.90
2023-03-16T19:42:04.779Z,46.78
2023-03-16T19:44:31.244Z,46.69
2023-03-16T19:46:57.690Z,46.25
2023-03-16T19:49:24.154Z,46.41
2023-03-16T19:51:50.644Z,46.39
2023-03-16T19:54:17.101Z,46.43
2023-03-16T19:56:43.601Z,46.28
2023-03-16T19:59:10.070Z,46.43
2023-03-16T20:01:36.591Z,46.24
2023-03-16T20:04:03.242Z,46.50
2023-03-16T20:06:29.812Z,46.27
2023-03-16T20:08:56.267Z,46.87
2023-03-16T20:11:22.734Z,47.08
2023-03-16T20:13:49.187Z,47.01
2023-03-16T20:16:15.662Z,46.73
2023-03-16T20:18:42.126Z,46.93
2023-03-16T20:21:08.635Z,46.82
2023-03-16T20:23:35.090Z,47.07
2023-03-16T20:26:03.023Z,47.17
2023-03-16T20:28:29.683Z,46.79
2023-03-16T20:30:56.175Z,46.73
2023-03-16T20:33:23.810Z,46.54
2023-03-16T20:35:50.590Z,46.51
2023-03-16T20:38:17.053Z,46.23
2023-03-16T20:40:43.544Z,46.25
2023-03-16T20:43:12.510Z,46.51
2023-03-16T20:45:40.969Z,46.35
2023-03-16T20:48:07.480Z,46.32
2023-03-16T20:50:33.968Z,46.13
2023-03-16T20:53:00.452Z,46.29
2023-03-16T20:55:27.025Z,46.28
2023-03-16T20:57:53.550Z,46.20
2023-03-16T21:00:20.042Z,46.30
2023-03-16T21:02:46.528Z,46.16
2023-03-16T21:05:13.049Z,46.38
2023-03-16T21:07:39.556Z,46.13
2023-03-16T21:10:06.003Z,46.15
2023-03-16T21:12:32.466Z,46.69
2023-03-16T21:14:58.966Z,45.82
2023-03-16T21:17:26.787Z,46.32
2023-03-16T21:19:53.372Z,46.35
2023-03-16T21:22:19.859Z,46.19
2023-03-16T21:24:46.313Z,46.17
2023-03-16T21:27:12.754Z,46.43
2023-03-16T21:29:39.231Z,46.55
2023-03-16T21:32:05.710Z,46.65
2023-03-16T21:34:32.216Z,47.19
2023-03-16T21:36:58.683Z,47.04
2023-03-16T21:39:25.432Z,46.44
2023-03-16T21:41:52.063Z,46.19
2023-03-16T21:44:18.605Z,46.43
2023-03-16T21:46:45.117Z,46.30
2023-03-16T21:49:11.611Z,46.38
2023-03-16T21:51:38.066Z,46.25
2023-03-16T21:54:04.551Z,46.23
2023-03-16T21:56:31.009Z,46.22
2023-03-16T21:58:57.488Z,46.38
2023-03-16T22:01:23.994Z,46.55
2023-03-16T22:03:51.552Z,46.63
2023-03-16T22:06:18.082Z,46.51
2023-03-16T22:08:44.530Z,46.57
2023-03-16T22:11:10.995Z,46.53
2023-03-16T22:13:37.452Z,46.22
2023-03-16T22:16:04.027Z,46.15
2023-03-16T22:18:30.504Z,46.16
2023-03-16T22:20:56.968Z,45.86
2023-03-16T22:23:23.423Z,45.93
2023-03-16T22:25:49.868Z,45.88
2023-03-16T22:28:16.329Z,45.94
2023-03-16T22:30:42.809Z,46.43
2023-03-16T22:33:09.255Z,47.40
2023-03-16T22:35:35.761Z,48.08
2023-03-16T22:38:02.250Z,47.87
2023-03-16T22:40:28.738Z,47.57
2023-03-16T22:42:55.208Z,47.36
2023-03-16T22:45:21.683Z,47.33
2023-03-16T22:47:48.138Z,46.91
2023-03-16T22:50:14.610Z,47.10
2023-03-16T22:52:41.080Z,47.69
2023-03-16T22:55:07.520Z,47.62
2023-03-16T22:57:34.024Z,47.50
2023-03-16T23:00:00.506Z,47.60
2023-03-16T23:02:26.956Z,47.53
2023-03-16T23:04:53.462Z,47.51
2023-03-16T23:07:19.954Z,47.43
2023-03-16T23:09:46.424Z,47.30
2023-03-16T23:12:12.882Z,47.79
2023-03-16T23:14:39.325Z,47.33
2023-03-16T23:17:05.801Z,47.43
2023-03-16T23:19:32.290Z,47.51
2023-03-16T23:21:58.759Z,47.43
2023-03-16T23:24:25.223Z,47.49
2023-03-16T23:26:51.756Z,47.72
2023-03-16T23:29:18.204Z,47.65
2023-03-16T23:31:44.655Z,47.42
2023-03-16T23:34:11.147Z,47.63
2023-03-16T23:36:37.617Z,47.60
2023-03-16T23:39:04.088Z,47.68
2023-03-16T23:41:30.554Z,47.59
2023-03-16T23:43:57.002Z,47.14
2023-03-16T23:46:23.537Z,47.61
2023-03-16T23:48:50.041Z,46.93
2023-03-16T23:51:17.158Z,47.40
2023-03-16T23:53:44.716Z,47.80
2023-03-16T23:56:11.173Z,47.23
2023-03-16T23:58:37.627Z,47.12
